首页
METAR-TAF:

METAR-TAF

机场 :

的里雅斯特 / Ronchi dei Legionari, 意大利

纬度: 45-49N, 经度: 013-29E, 海拔: 12米

当前天气观测

该预报发布于19分钟前的11:20 UTC
风速10节,风向东转东北,在北转东北之间变化
温度 23°C
湿度 31%
气压 1020 hPa
能见度10公里或以上
1500米以下无云,无积雨云

METAR: LIPQ 191120Z 07010KT 020V100 CAVOK 23/05 Q1020

时间: 13:39 (11:39 UTC)

预报

该预报发布于6小时和39分钟前的05:00 UTC
预报有效从19日的 06点(UTC)到 20日的 06点(UTC)
风速10节,风向
能见度10公里或以上
散云层高于4000英尺

TAF: LIPQ 190500Z 1906/2006 09010KT 9999 SCT040

超过4000个机场的气象观测和天气预报(METAR&TAF报告)。

可查询的气象台以黄色和红色小点在地图上表示。

将鼠标移到小点上方,可查看气象台名称。

然后点击查看天气观测和预报。

如需切换地图:点击带黑十字的绿色按钮放大地图;点击带横线的绿色按钮缩小地图;或者点击绿色箭头查看邻近地区的地图。


METAR-TAF: